^^
Saratoga-Weather Station Historical Data
Daily Summary for July 26, 2020 Units:  Metric    English   Both
Daily Weekly Monthly Yearly Custom
  High: Low: Average:
Temperature: 29.5 °C 15.9 °C 21.3 °C
Dew Point: 20.8 °C 13.6 °C 17 °C
Humidity: 95% 58% 77%
Wind Speed: 17.7km/h 0km/h 1.8km/h
Wind Gust: 27.4km/h - -
Wind- - South
Pressure: 1013.2 hPa 1009.1 hPa -
Precipitation: 1.0 mm    
Historical Graphs
 
 
Tabular Data for July 26, 2020
Time Temperature Dew Point Pressure Wind Wind Speed Wind Gust Humidity Rainfall Rate (Hourly) solar
00:03 20.6 °C 15.8 °C 1013.2 hPa Calm   3.2 km/h 74% 0.0 mm 0 W/m2
00:08 20.5 °C 15.7 °C 1013.2 hPa Calm   3.2 km/h 74% 0.0 mm 0 W/m2
00:13 20.6 °C 15.8 °C 1013.2 hPa Calm   3.2 km/h 74% 0.0 mm 0 W/m2
00:18 20.5 °C 15.7 °C 1013.2 hPa Calm   3.2 km/h 74% 0.0 mm 0 W/m2
00:23 20.3 °C 15.7 °C 1012.9 hPa SSE 3.2 km/h 3.2 km/h 75% 0.0 mm 0 W/m2
00:28 20.1 °C 15.5 °C 1013.2 hPa Calm   1.6 km/h 75% 0.0 mm 0 W/m2
00:33 19.9 °C 15.3 °C 1012.9 hPa Calm     75% 0.0 mm 0 W/m2
00:38 19.8 °C 15.4 °C 1013.2 hPa SSE 1.4 km/h 3.2 km/h 76% 0.0 mm 0 W/m2
00:43 19.7 °C 15.3 °C 1013.2 hPa SSE 1.4 km/h 1.6 km/h 76% 0.0 mm 0 W/m2
00:48 19.6 °C 15.3 °C 1013.2 hPa Calm   1.6 km/h 76% 0.0 mm 0 W/m2
00:53 19.4 °C 15.3 °C 1013.2 hPa Calm   3.2 km/h 77% 0.0 mm 0 W/m2
00:58 19.3 °C 15.4 °C 1013.2 hPa Calm     78% 0.0 mm 0 W/m2
01:04 19.2 °C 15.3 °C 1013.2 hPa Calm   3.2 km/h 78% 0.0 mm 0 W/m2
01:09 19 °C 15.1 °C 1013.2 hPa Calm     78% 0.0 mm 0 W/m2
01:14 18.9 °C 15.2 °C 1012.9 hPa SSE 1.4 km/h 1.6 km/h 79% 0.0 mm 0 W/m2
01:19 18.8 °C 15.1 °C 1012.9 hPa Calm   1.6 km/h 79% 0.0 mm 0 W/m2
01:24 18.7 °C 15.2 °C 1013.2 hPa Calm     80% 0.0 mm 0 W/m2
01:29 18.6 °C 15.1 °C 1012.9 hPa Calm     80% 0.0 mm 0 W/m2
01:34 18.5 °C 15 °C 1012.9 hPa Calm     80% 0.0 mm 0 W/m2
01:39 18.4 °C 14.9 °C 1013.2 hPa Calm     80% 0.0 mm 0 W/m2
01:44 18.3 °C 14.8 °C 1012.9 hPa Calm     80% 0.0 mm 0 W/m2
01:49 18.3 °C 14.8 °C 1012.9 hPa Calm     80% 0.0 mm 0 W/m2
01:54 18.2 °C 14.9 °C 1012.9 hPa Calm     81% 0.0 mm 0 W/m2
01:59 18.1 °C 14.8 °C 1012.9 hPa Calm     81% 0.0 mm 0 W/m2
02:04 18 °C 14.7 °C 1012.9 hPa Calm     81% 0.0 mm 0 W/m2
02:09 17.9 °C 14.6 °C 1012.9 hPa Calm     81% 0.0 mm 0 W/m2
02:14 17.9 °C 14.6 °C 1012.9 hPa Calm     81% 0.0 mm 0 W/m2
02:19 17.8 °C 14.7 °C 1012.5 hPa Calm     82% 0.0 mm 0 W/m2
02:24 17.7 °C 14.6 °C 1012.5 hPa Calm     82% 0.0 mm 0 W/m2
02:29 17.6 °C 14.5 °C 1012.5 hPa Calm     82% 0.0 mm 0 W/m2
02:34 17.6 °C 14.5 °C 1012.5 hPa Calm     82% 0.0 mm 0 W/m2
02:39 17.4 °C 14.5 °C 1012.2 hPa Calm     83% 0.0 mm 0 W/m2
02:44 17.3 °C 14.4 °C 1012.2 hPa Calm     83% 0.0 mm 0 W/m2
02:49 17.3 °C 14.4 °C 1012.2 hPa Calm     83% 0.0 mm 0 W/m2
02:54 17.2 °C 14.5 °C 1012.2 hPa Calm     84% 0.0 mm 0 W/m2
02:59 17.1 °C 14.4 °C 1012.2 hPa Calm     84% 0.0 mm 0 W/m2
03:04 17.1 °C 14.4 °C 1012.2 hPa Calm     84% 0.0 mm 0 W/m2
03:09 17 °C 14.3 °C 1012.2 hPa Calm     84% 0.0 mm 0 W/m2
03:14 16.9 °C 14.2 °C 1011.9 hPa Calm     84% 0.0 mm 0 W/m2
03:19 16.9 °C 14.2 °C 1011.9 hPa SSE 1.4 km/h 1.6 km/h 84% 0.0 mm 0 W/m2
03:24 16.8 °C 14.3 °C 1011.9 hPa Calm   1.6 km/h 85% 0.0 mm 0 W/m2
03:29 16.8 °C 14.3 °C 1011.9 hPa SSE 1.4 km/h 1.6 km/h 85% 0.0 mm 0 W/m2
03:34 16.8 °C 14.3 °C 1011.9 hPa Calm     85% 0.0 mm 0 W/m2
03:39 16.8 °C 14.1 °C 1011.9 hPa SSE 3.2 km/h 3.2 km/h 84% 0.0 mm 0 W/m2
03:44 16.7 °C 14 °C 1011.9 hPa SSE 1.4 km/h 3.2 km/h 84% 0.0 mm 0 W/m2
03:49 16.7 °C 14 °C 1011.9 hPa SSE 1.4 km/h 1.6 km/h 84% 0.0 mm 0 W/m2
03:54 16.7 °C 14 °C 1011.9 hPa Calm   3.2 km/h 84% 0.0 mm 0 W/m2
03:59 16.6 °C 13.9 °C 1011.9 hPa Calm     84% 0.0 mm 0 W/m2
04:04 16.6 °C 13.9 °C 1011.9 hPa Calm     84% 0.0 mm 0 W/m2
04:09 16.6 °C 14.1 °C 1011.9 hPa Calm     85% 0.0 mm 0 W/m2
04:14 16.6 °C 14.1 °C 1011.9 hPa Calm     85% 0.0 mm 0 W/m2
04:19 16.5 °C 14 °C 1011.9 hPa Calm     85% 0.0 mm 0 W/m2
04:24 16.5 °C 14 °C 1011.9 hPa Calm     85% 0.0 mm 0 W/m2
04:29 16.4 °C 13.9 °C 1011.9 hPa SSE 1.4 km/h 1.6 km/h 85% 0.0 mm 0 W/m2
04:34 16.4 °C 13.9 °C 1011.5 hPa Calm   1.6 km/h 85% 0.0 mm 0 W/m2
04:40 16.4 °C 13.9 °C 1011.5 hPa Calm     85% 0.0 mm 0 W/m2
04:45 16.3 °C 13.8 °C 1011.5 hPa Calm     85% 0.0 mm 0 W/m2
04:50 16.3 °C 13.8 °C 1011.5 hPa Calm     85% 0.0 mm 0 W/m2
04:55 16.3 °C 13.8 °C 1011.5 hPa Calm     85% 0.0 mm 0 W/m2
05:00 16.2 °C 13.7 °C 1011.2 hPa Calm     85% 0.0 mm 0 W/m2
05:05 16.1 °C 13.8 °C 1011.2 hPa Calm     86% 0.0 mm 0 W/m2
05:10 16.1 °C 13.8 °C 1011.2 hPa Calm     86% 0.0 mm 0 W/m2
05:15 16.1 °C 13.8 °C 1011.2 hPa Calm     86% 0.0 mm 0 W/m2
05:20 16 °C 13.7 °C 1011.2 hPa Calm     86% 0.0 mm 0 W/m2
05:25 16 °C 13.7 °C 1011.2 hPa Calm   1.6 km/h 86% 0.0 mm 0 W/m2
05:30 15.9 °C 13.6 °C 1011.2 hPa Calm     86% 0.0 mm 0 W/m2
05:35 15.9 °C 13.6 °C 1011.2 hPa Calm     86% 0.0 mm 5 W/m2
05:41 15.9 °C 13.7 °C 1011.2 hPa SSE 1.4 km/h 1.6 km/h 87% 0.0 mm 7 W/m2
05:46 15.9 °C 13.7 °C 1011.2 hPa Calm     87% 0.0 mm 11 W/m2
05:51 15.9 °C 13.7 °C 1011.2 hPa Calm     87% 0.0 mm 12 W/m2
05:56 16.1 °C 13.9 °C 1011.2 hPa Calm     87% 0.0 mm 14 W/m2
06:01 16.1 °C 13.8 °C 1011.5 hPa Calm     86% 0.0 mm 18 W/m2
06:06 16.1 °C 13.8 °C 1011.5 hPa Calm     86% 0.0 mm 19 W/m2
06:11 16.2 °C 13.9 °C 1011.5 hPa Calm     86% 0.0 mm 21 W/m2
06:16 16.3 °C 14 °C 1011.2 hPa Calm     86% 0.0 mm 23 W/m2
06:21 16.5 °C 14 °C 1011.2 hPa SSE 1.4 km/h 1.6 km/h 85% 0.0 mm 25 W/m2
06:26 16.7 °C 14 °C 1011.2 hPa Calm     84% 0.0 mm 28 W/m2
06:31 16.9 °C 14 °C 1011.2 hPa NE 1.4 km/h 3.2 km/h 83% 0.0 mm 32 W/m2
06:36 17.2 °C 14.1 °C 1011.5 hPa Calm     82% 0.0 mm 44 W/m2
06:41 17.4 °C 14.1 °C 1011.5 hPa ENE 1.4 km/h 3.2 km/h 81% 0.0 mm 51 W/m2
06:46 17.7 °C 14.2 °C 1011.5 hPa Calm   3.2 km/h 80% 0.0 mm 44 W/m2
06:51 17.9 °C 14.2 °C 1011.5 hPa ENE 1.4 km/h 1.6 km/h 79% 0.0 mm 40 W/m2
06:56 18.1 °C 14.2 °C 1011.5 hPa ENE 1.4 km/h 3.2 km/h 78% 0.0 mm 42 W/m2
07:01 18.2 °C 14.3 °C 1011.2 hPa Calm   1.6 km/h 78% 0.0 mm 42 W/m2
07:06 18.3 °C 14.4 °C 1011.5 hPa NE 1.4 km/h 3.2 km/h 78% 0.0 mm 42 W/m2
07:11 18.3 °C 14.2 °C 1011.5 hPa East 3.2 km/h 4.8 km/h 77% 0.0 mm 44 W/m2
07:16 18.4 °C 14.3 °C 1011.5 hPa East 1.4 km/h 3.2 km/h 77% 0.0 mm 46 W/m2
07:26 18.7 °C 14.4 °C 1011.9 hPa Calm   3.2 km/h 76% 0.0 mm 47 W/m2
07:31 18.7 °C 14.2 °C 1011.5 hPa NE 3.2 km/h 3.2 km/h 75% 0.0 mm 49 W/m2
07:36 18.8 °C 14.3 °C 1011.5 hPa Calm   4.8 km/h 75% 0.0 mm 49 W/m2
07:41 18.9 °C 14.4 °C 1011.5 hPa ENE 3.2 km/h 4.8 km/h 75% 0.0 mm 121 W/m2
07:47 19.1 °C 14.6 °C 1011.5 hPa ENE 3.2 km/h 6.4 km/h 75% 0.0 mm 230 W/m2
07:52 19.3 °C 14.5 °C 1011.2 hPa NW 1.4 km/h 4.8 km/h 74% 0.0 mm 243 W/m2
07:57 19.7 °C 14.9 °C 1011.2 hPa East 1.4 km/h 6.4 km/h 74% 0.0 mm 257 W/m2
08:02 20.1 °C 14.9 °C 1011.5 hPa ENE 3.2 km/h 6.4 km/h 72% 0.0 mm 267 W/m2
08:07 20.4 °C 15 °C 1011.2 hPa ESE 3.2 km/h 4.8 km/h 71% 0.0 mm 279 W/m2
08:12 20.8 °C 15.1 °C 1011.2 hPa NNE 1.4 km/h 8 km/h 70% 0.0 mm 258 W/m2
08:17 20.8 °C 14.9 °C 1011.2 hPa ENE 3.2 km/h 6.4 km/h 69% 0.0 mm 130 W/m2
08:22 21 °C 15.1 °C 1011.2 hPa NE 1.4 km/h 4.8 km/h 69% 0.0 mm 69 W/m2
08:27 21.2 °C 15.1 °C 1011.2 hPa NE 4.7 km/h 6.4 km/h 68% 0.0 mm 69 W/m2
08:32 21.3 °C 15.2 °C 1011.2 hPa ENE 4.7 km/h 4.8 km/h 68% 0.0 mm 70 W/m2
08:37 21.4 °C 15.2 °C 1011.5 hPa NE 4.7 km/h 4.8 km/h 68% 0.0 mm 70 W/m2
08:42 21.7 °C 15.5 °C 1011.2 hPa Calm   9.7 km/h 68% 0.0 mm 74 W/m2
08:47 21.8 °C 15.6 °C 1011.2 hPa East 1.4 km/h 4.8 km/h 68% 0.0 mm 74 W/m2
08:52 21.9 °C 15.5 °C 1011.2 hPa ENE 3.2 km/h 6.4 km/h 67% 0.0 mm 72 W/m2
08:57 22.1 °C 15.7 °C 1011.2 hPa ENE 1.4 km/h 3.2 km/h 67% 0.0 mm 72 W/m2
09:02 22.2 °C 15.5 °C 1011.2 hPa ESE 3.2 km/h 8 km/h 66% 0.0 mm 104 W/m2
09:07 22.2 °C 15.5 °C 1011.2 hPa East 3.2 km/h 8 km/h 66% 0.0 mm 220 W/m2
09:12 22.3 °C 15.6 °C 1011.2 hPa ENE 4.7 km/h 4.8 km/h 66% 0.0 mm 295 W/m2
09:17 22.4 °C 15.7 °C 1011.2 hPa ESE 6.4 km/h 8 km/h 66% 0.0 mm 446 W/m2
09:22 22.7 °C 16 °C 1011.2 hPa East 1.4 km/h 3.2 km/h 66% 0.0 mm 466 W/m2
09:27 22.8 °C 15.9 °C 1011.2 hPa NE 1.4 km/h 6.4 km/h 65% 0.0 mm 531 W/m2
09:32 22.9 °C 16 °C 1011.2 hPa SE 1.4 km/h 3.2 km/h 65% 0.0 mm 608 W/m2
09:37 22.9 °C 16.2 °C 1011.2 hPa ENE 4.7 km/h 4.8 km/h 66% 0.0 mm 181 W/m2
09:42 22.8 °C 15.9 °C 1011.2 hPa Calm   4.8 km/h 65% 0.0 mm 188 W/m2
09:48 22.9 °C 16.2 °C 1011.5 hPa ENE 1.4 km/h 3.2 km/h 66% 0.0 mm 343 W/m2
09:53 22.9 °C 16 °C 1011.9 hPa NE 3.2 km/h 4.8 km/h 65% 0.0 mm 248 W/m2
09:58 22.8 °C 16.1 °C 1011.5 hPa ENE 1.4 km/h 4.8 km/h 66% 0.0 mm 376 W/m2
10:03 23 °C 16.5 °C 1011.5 hPa ENE 3.2 km/h 3.2 km/h 67% 0.0 mm 260 W/m2
10:08 23.1 °C 16.4 °C 1011.2 hPa Calm   1.6 km/h 66% 0.0 mm 234 W/m2
10:13 23.3 °C 16.6 °C 1011.2 hPa East 4.7 km/h 4.8 km/h 66% 0.0 mm 130 W/m2
10:18 23.5 °C 16.3 °C 1011.2 hPa SE 1.4 km/h 3.2 km/h 64% 0.0 mm 169 W/m2
10:23 23.8 °C 17.1 °C 1011.2 hPa South 1.4 km/h 3.2 km/h 66% 0.0 mm 598 W/m2
10:28 24.1 °C 17.1 °C 1011.2 hPa WNW 4.7 km/h 4.8 km/h 65% 0.0 mm 610 W/m2
10:33 24.2 °C 16.7 °C 1011.2 hPa West 3.2 km/h 4.8 km/h 63% 0.0 mm 624 W/m2
10:38 24.3 °C 16.8 °C 1010.8 hPa ESE 3.2 km/h 3.2 km/h 63% 0.0 mm 640 W/m2
10:43 24.7 °C 17.2 °C 1010.8 hPa ESE 1.4 km/h 4.8 km/h 63% 0.0 mm 652 W/m2
10:48 24.9 °C 17.4 °C 1010.8 hPa NNE 3.2 km/h 3.2 km/h 63% 0.0 mm 663 W/m2
10:53 25.1 °C 17 °C 1010.8 hPa West 6.4 km/h 11.3 km/h 61% 0.0 mm 679 W/m2
10:58 24.9 °C 17.6 °C 1010.8 hPa NNE 1.4 km/h 3.2 km/h 64% 0.0 mm 684 W/m2
11:03 25 °C 17.5 °C 1010.8 hPa ENE 3.2 km/h 11.3 km/h 63% 0.0 mm 693 W/m2
11:08 25.3 °C 17.7 °C 1010.8 hPa North 4.7 km/h 4.8 km/h 63% 0.0 mm 703 W/m2
11:14 25.4 °C 17.6 °C 1010.5 hPa WNW 1.4 km/h 6.4 km/h 62% 0.0 mm 710 W/m2
11:19 25.5 °C 17.7 °C 1010.5 hPa NNW 1.4 km/h 6.4 km/h 62% 0.0 mm 721 W/m2
11:24 25.6 °C 18 °C 1010.5 hPa WSW 3.2 km/h 6.4 km/h 63% 0.0 mm 726 W/m2
11:29 25.7 °C 17.9 °C 1010.5 hPa NNW 3.2 km/h 3.2 km/h 62% 0.0 mm 735 W/m2
11:34 26.1 °C 18.2 °C 1010.5 hPa NW 6.4 km/h 11.3 km/h 62% 0.0 mm 744 W/m2
11:39 26.3 °C 18.4 °C 1010.5 hPa North 4.7 km/h 4.8 km/h 62% 0.0 mm 751 W/m2
11:44 26.5 °C 18.6 °C 1010.5 hPa Calm   11.3 km/h 62% 0.0 mm 756 W/m2
11:49 26.6 °C 18.5 °C 1010.5 hPa NW 6.4 km/h 6.4 km/h 61% 0.0 mm 770 W/m2
11:54 26.6 °C 18.5 °C 1010.5 hPa NNE 6.4 km/h 6.4 km/h 61% 0.0 mm 775 W/m2
11:59 26.7 °C 18.6 °C 1010.5 hPa West 9.7 km/h 12.9 km/h 61% 0.0 mm 782 W/m2
12:09 26.7 °C 18.8 °C 1010.5 hPa NW 3.2 km/h 12.9 km/h 62% 0.0 mm 786 W/m2
12:14 26.9 °C 19 °C 1010.5 hPa NW 3.2 km/h 4.8 km/h 62% 0.0 mm 796 W/m2
12:19 27.1 °C 18.9 °C 1010.5 hPa NW 3.2 km/h 11.3 km/h 61% 0.0 mm 805 W/m2
12:24 27.2 °C 19 °C 1010.5 hPa NNW 1.4 km/h 6.4 km/h 61% 0.0 mm 810 W/m2
12:29 27.3 °C 19.4 °C 1010.5 hPa North 3.2 km/h 4.8 km/h 62% 0.0 mm 817 W/m2
12:34 27.4 °C 19.5 °C 1010.5 hPa West 1.4 km/h 3.2 km/h 62% 0.0 mm 823 W/m2
12:39 27.8 °C 19.6 °C 1010.5 hPa ESE 3.2 km/h 6.4 km/h 61% 0.0 mm 831 W/m2
12:44 28 °C 19.2 °C 1010.2 hPa West 1.4 km/h 4.8 km/h 59% 0.0 mm 833 W/m2
12:49 27.9 °C 19.1 °C 1010.2 hPa NE 1.4 km/h 8 km/h 59% 0.0 mm 844 W/m2
12:54 27.9 °C 19.4 °C 1010.5 hPa NNW 4.7 km/h 4.8 km/h 60% 0.0 mm 861 W/m2
12:59 27.9 °C 19.4 °C 1010.5 hPa SSW 1.4 km/h 6.4 km/h 60% 0.0 mm 854 W/m2
13:04 28.1 °C 19.9 °C 1010.5 hPa West 6.4 km/h 11.3 km/h 61% 0.0 mm 886 W/m2
13:09 27.9 °C 19.1 °C 1010.5 hPa WNW 3.2 km/h 14.5 km/h 59% 0.0 mm 925 W/m2
13:14 27.6 °C 19.7 °C 1010.5 hPa West 4.7 km/h 11.3 km/h 62% 0.0 mm 954 W/m2
13:19 27.6 °C 19.7 °C 1010.5 hPa West 9.7 km/h 16.1 km/h 62% 0.0 mm 260 W/m2
13:24 27.7 °C 19.8 °C 1010.2 hPa WNW 3.2 km/h 6.4 km/h 62% 0.0 mm 998 W/m2
13:29 27.8 °C 19.6 °C 1010.5 hPa Calm   16.1 km/h 61% 0.0 mm 353 W/m2
13:34 27.9 °C 20.2 °C 1010.2 hPa ESE 1.4 km/h 3.2 km/h 63% 0.0 mm 610 W/m2
13:39 28.3 °C 20.3 °C 1010.2 hPa SSE 1.4 km/h 9.7 km/h 62% 0.0 mm 610 W/m2
13:44 28.4 °C 20.2 °C 1010.2 hPa NW 6.4 km/h 11.3 km/h 61% 0.0 mm 288 W/m2
13:49 28.2 °C 20 °C 1010.2 hPa SW 1.4 km/h 12.9 km/h 61% 0.0 mm 285 W/m2
13:54 27.9 °C 19.9 °C 1010.2 hPa WNW 1.4 km/h 4.8 km/h 62% 0.0 mm 601 W/m2
13:59 28 °C 20.3 °C 1010.2 hPa Calm   12.9 km/h 63% 0.0 mm 362 W/m2
14:04 28.1 °C 20.1 °C 1010.2 hPa ENE 1.4 km/h 6.4 km/h 62% 0.0 mm 279 W/m2
14:09 27.9 °C 19.7 °C 1010.2 hPa NW 7.9 km/h 8 km/h 61% 0.0 mm 306 W/m2
14:14 27.8 °C 19.3 °C 1010.2 hPa WNW 4.7 km/h 9.7 km/h 60% 0.0 mm 415 W/m2
14:19 27.9 °C 19.7 °C 1009.8 hPa Calm   1.6 km/h 61% 0.0 mm 462 W/m2
14:24 28.2 °C 20 °C 1009.8 hPa WNW 3.2 km/h 4.8 km/h 61% 0.0 mm 962 W/m2
14:29 28.6 °C 20.1 °C 1009.8 hPa NNE 6.4 km/h 6.4 km/h 60% 0.0 mm 831 W/m2
14:34 28.8 °C 20.8 °C 1009.5 hPa NNW 3.2 km/h 4.8 km/h 62% 0.0 mm 803 W/m2
14:39 29.1 °C 20.5 °C 1009.1 hPa North 7.9 km/h 8 km/h 60% 0.0 mm 788 W/m2
14:44 29.4 °C 20.8 °C 1009.1 hPa East 6.4 km/h 6.4 km/h 60% 0.0 mm 698 W/m2
14:49 29.5 °C 20.4 °C 1009.1 hPa West 1.4 km/h 3.2 km/h 58% 0.0 mm 789 W/m2
14:54 29.4 °C 20.3 °C 1009.1 hPa East 1.4 km/h 3.2 km/h 58% 0.0 mm 441 W/m2
14:59 29.3 °C 20.2 °C 1009.1 hPa West 4.7 km/h 8 km/h 58% 0.0 mm 438 W/m2
15:04 29.2 °C 20.4 °C 1009.1 hPa WNW 4.7 km/h 8 km/h 59% 0.0 mm 729 W/m2
15:09 29.3 °C 20.2 °C 1009.5 hPa NW 4.7 km/h 4.8 km/h 58% 0.0 mm 522 W/m2
15:14 29.1 °C 20.3 °C 1009.5 hPa West 6.4 km/h 12.9 km/h 59% 0.0 mm 179 W/m2
15:19 28.7 °C 20.2 °C 1009.5 hPa WSW 1.4 km/h 6.4 km/h 60% 0.0 mm 162 W/m2
15:24 28.4 °C 20.2 °C 1009.8 hPa West 6.4 km/h 12.9 km/h 61% 0.0 mm 123 W/m2
15:29 28 °C 20 °C 1009.8 hPa West 3.2 km/h 4.8 km/h 62% 0.0 mm 88 W/m2
15:34 27.8 °C 20.1 °C 1010.2 hPa WNW 4.7 km/h 11.3 km/h 63% 0.0 mm 76 W/m2
15:39 27.6 °C 19.9 °C 1009.8 hPa NW 4.7 km/h 6.4 km/h 63% 0.0 mm 56 W/m2
15:44 27.3 °C 20.1 °C 1010.2 hPa WSW 3.2 km/h 11.3 km/h 65% 0.0 mm 30 W/m2
15:49 26.8 °C 18.6 °C 1010.5 hPa NNW 1.4 km/h 22.5 km/h 61% 0.0 mm 12 W/m2
15:54 24.8 °C 17.5 °C 1010.8 hPa WNW 9.7 km/h 17.7 km/h 64% 0.0 mm 14 W/m2
15:59 23.6 °C 17.8 °C 1010.8 hPa West 11.1 km/h 17.7 km/h 70% 0.0 mm 12 W/m2
16:05 22.9 °C 17.6 °C 1010.8 hPa NW 16.3 km/h 16.1 km/h 72% 0.0 mm 11 W/m2
16:10 22.3 °C 17.2 °C 1010.8 hPa West 17.7 km/h 27.4 km/h 73% 0.0 mm 9 W/m2
16:15 21.8 °C 17.4 °C 1010.8 hPa West 14.3 km/h 25.7 km/h 76% 0.0 mm 7 W/m2
16:20 21.3 °C 17.7 °C 1010.8 hPa West 9.7 km/h 27.4 km/h 80% 0.0 mm 7 W/m2
16:25 20.8 °C 17.8 °C 1010.8 hPa SW 3.2 km/h 11.3 km/h 83% 0.0 mm 7 W/m2
16:30 20.5 °C 17.7 °C 1010.8 hPa NW 7.9 km/h 17.7 km/h 84% 0.2 mm 9 W/m2
16:35 20.3 °C 17.5 °C 1010.8 hPa West 11.1 km/h 16.1 km/h 84% 0.5 mm 11 W/m2
16:40 20.4 °C 17.6 °C 1010.8 hPa West 6.4 km/h 17.7 km/h 84% 0.5 mm 12 W/m2
16:45 20.3 °C 17.5 °C 1010.8 hPa WSW 6.4 km/h 11.3 km/h 84% 0.5 mm 14 W/m2
16:50 19.9 °C 16.9 °C 1010.8 hPa West 9.7 km/h 12.9 km/h 83% 0.5 mm 18 W/m2
16:55 19.9 °C 16.9 °C 1010.8 hPa WSW 11.1 km/h 11.3 km/h 83% 0.5 mm 23 W/m2
17:00 20 °C 17.2 °C 1010.8 hPa West 6.4 km/h 6.4 km/h 84% 0.8 mm 30 W/m2
17:05 19.9 °C 17.3 °C 1010.8 hPa Calm   4.8 km/h 85% 0.8 mm 37 W/m2
17:10 19.8 °C 17.2 °C 1010.8 hPa SSE 1.4 km/h 3.2 km/h 85% 1.0 mm 47 W/m2
17:15 19.7 °C 17.3 °C 1010.8 hPa Calm   4.8 km/h 86% 1.0 mm 62 W/m2
17:20 19.7 °C 17.7 °C 1010.8 hPa West 3.2 km/h 4.8 km/h 88% 1.0 mm 76 W/m2
17:25 19.7 °C 17.7 °C 1010.5 hPa West 1.4 km/h 3.2 km/h 88% 1.0 mm 91 W/m2
17:30 19.8 °C 18.1 °C 1010.5 hPa Calm     90% 0.8 mm 109 W/m2
17:35 19.8 °C 18.3 °C 1010.5 hPa Calm     91% 0.5 mm 144 W/m2
17:40 19.9 °C 18.4 °C 1010.5 hPa Calm     91% 0.5 mm 163 W/m2
17:45 20.1 °C 18.4 °C 1010.8 hPa Calm   1.6 km/h 90% 0.5 mm 162 W/m2
17:50 20.2 °C 18.3 °C 1010.8 hPa Calm     89% 0.5 mm 156 W/m2
17:55 20.4 °C 18.5 °C 1010.8 hPa West 1.4 km/h 3.2 km/h 89% 0.5 mm 160 W/m2
18:00 20.6 °C 18.5 °C 1010.8 hPa Calm   1.6 km/h 88% 0.2 mm 160 W/m2
18:05 20.8 °C 18.7 °C 1010.8 hPa Calm     88% 0.2 mm 137 W/m2
18:10 20.9 °C 18.8 °C 1010.8 hPa ENE 3.2 km/h 3.2 km/h 88% 0.0 mm 125 W/m2
18:15 21 °C 18.8 °C 1010.8 hPa Calm   1.6 km/h 87% 0.0 mm 104 W/m2
18:20 21.1 °C 19 °C 1010.8 hPa SE 1.4 km/h 3.2 km/h 88% 0.0 mm 98 W/m2
18:25 21.2 °C 19.1 °C 1010.8 hPa NE 1.4 km/h 3.2 km/h 88% 0.0 mm 79 W/m2
18:30 21.2 °C 18.9 °C 1010.8 hPa Calm   1.6 km/h 87% 0.0 mm 69 W/m2
18:35 21.2 °C 19.1 °C 1010.8 hPa Calm     88% 0.0 mm 77 W/m2
18:40 21.1 °C 19 °C 1010.8 hPa Calm   1.6 km/h 88% 0.0 mm 95 W/m2
18:45 21.1 °C 19.2 °C 1010.8 hPa Calm     89% 0.0 mm 105 W/m2
18:51 21.1 °C 19.2 °C 1010.8 hPa Calm     89% 0.0 mm 109 W/m2
18:56 21.1 °C 19 °C 1010.8 hPa Calm   1.6 km/h 88% 0.0 mm 98 W/m2
19:01 21.2 °C 19.1 °C 1010.8 hPa Calm     88% 0.0 mm 98 W/m2
19:06 21.3 °C 19.4 °C 1010.5 hPa Calm   1.6 km/h 89% 0.0 mm 121 W/m2
19:11 21.3 °C 19.2 °C 1010.5 hPa ESE 3.2 km/h 3.2 km/h 88% 0.0 mm 137 W/m2
19:16 21.4 °C 19.1 °C 1010.5 hPa Calm     87% 0.0 mm 142 W/m2
19:21 21.5 °C 19.2 °C 1010.5 hPa Calm   1.6 km/h 87% 0.0 mm 134 W/m2
19:26 21.6 °C 19.2 °C 1010.5 hPa Calm   1.6 km/h 86% 0.0 mm 128 W/m2
19:31 21.7 °C 19.1 °C 1010.5 hPa East 1.4 km/h 3.2 km/h 85% 0.0 mm 107 W/m2
19:36 21.7 °C 19.1 °C 1010.5 hPa Calm     85% 0.0 mm 104 W/m2
19:41 21.7 °C 19.3 °C 1010.5 hPa Calm   1.6 km/h 86% 0.0 mm 116 W/m2
19:46 21.7 °C 19.3 °C 1010.5 hPa ESE 1.4 km/h 3.2 km/h 86% 0.0 mm 114 W/m2
19:51 21.7 °C 19.3 °C 1010.5 hPa Calm     86% 0.0 mm 104 W/m2
19:56 21.8 °C 19.4 °C 1010.5 hPa Calm   1.6 km/h 86% 0.0 mm 95 W/m2
20:01 21.8 °C 19.5 °C 1010.5 hPa Calm   1.6 km/h 87% 0.0 mm 93 W/m2
20:06 21.8 °C 19.5 °C 1010.5 hPa Calm   1.6 km/h 87% 0.0 mm 213 W/m2
20:11 22.2 °C 19.7 °C 1010.5 hPa SE 1.4 km/h 4.8 km/h 86% 0.0 mm 190 W/m2
20:16 22.3 °C 19.5 °C 1010.5 hPa Calm   1.6 km/h 84% 0.0 mm 148 W/m2
20:21 22.4 °C 19.6 °C 1010.5 hPa Calm   4.8 km/h 84% 0.0 mm 113 W/m2
20:31 22.6 °C 19.6 °C 1010.5 hPa Calm   1.6 km/h 83% 0.0 mm 72 W/m2
20:36 22.6 °C 19.6 °C 1010.5 hPa Calm   1.6 km/h 83% 0.0 mm 76 W/m2
20:41 22.6 °C 19.6 °C 1010.5 hPa Calm     83% 0.0 mm 67 W/m2
20:46 22.6 °C 19.6 °C 1010.5 hPa Calm     83% 0.0 mm 67 W/m2
20:51 22.5 °C 19.5 °C 1010.2 hPa Calm   1.6 km/h 83% 0.0 mm 49 W/m2
20:56 22.4 °C 19.4 °C 1010.2 hPa Calm     83% 0.0 mm 47 W/m2
21:01 22.2 °C 19.2 °C 1010.5 hPa Calm   1.6 km/h 83% 0.0 mm 23 W/m2
21:06 22.1 °C 19.3 °C 1010.5 hPa SE 1.4 km/h 1.6 km/h 84% 0.0 mm 25 W/m2
21:11 21.8 °C 19.2 °C 1010.5 hPa Calm   1.6 km/h 85% 0.0 mm 18 W/m2
21:16 21.6 °C 19 °C 1010.5 hPa Calm   1.6 km/h 85% 0.0 mm 14 W/m2
21:21 21.3 °C 18.9 °C 1010.8 hPa Calm     86% 0.0 mm 12 W/m2
21:26 21.1 °C 18.7 °C 1010.8 hPa Calm   1.6 km/h 86% 0.0 mm 9 W/m2
21:31 20.8 °C 18.6 °C 1010.8 hPa Calm     87% 0.0 mm 7 W/m2
21:36 20.7 °C 18.5 °C 1010.8 hPa Calm     87% 0.0 mm 5 W/m2
21:41 20.4 °C 18.3 °C 1010.8 hPa Calm     88% 0.0 mm 0 W/m2
21:46 20.1 °C 18 °C 1010.8 hPa Calm     88% 0.0 mm 0 W/m2
21:51 19.9 °C 18 °C 1010.8 hPa Calm     89% 0.0 mm 0 W/m2
21:56 19.7 °C 17.8 °C 1010.8 hPa Calm     89% 0.0 mm 0 W/m2
22:01 19.6 °C 17.9 °C 1010.8 hPa Calm     90% 0.0 mm 0 W/m2
22:06 19.3 °C 17.6 °C 1010.8 hPa Calm     90% 0.0 mm 0 W/m2
22:11 19.2 °C 17.7 °C 1010.8 hPa Calm     91% 0.0 mm 0 W/m2
22:16 19.1 °C 17.6 °C 1011.2 hPa Calm     91% 0.0 mm 0 W/m2
22:21 19 °C 17.7 °C 1010.8 hPa Calm     92% 0.0 mm 0 W/m2
22:26 18.9 °C 17.6 °C 1010.8 hPa Calm     92% 0.0 mm 0 W/m2
22:32 18.8 °C 17.5 °C 1010.8 hPa Calm     92% 0.0 mm 0 W/m2
22:37 18.7 °C 17.4 °C 1010.8 hPa Calm     92% 0.0 mm 0 W/m2
22:42 18.7 °C 17.5 °C 1010.8 hPa Calm     93% 0.0 mm 0 W/m2
22:47 18.6 °C 17.4 °C 1010.8 hPa Calm     93% 0.0 mm 0 W/m2
22:52 18.6 °C 17.4 °C 1010.8 hPa Calm     93% 0.0 mm 0 W/m2
22:57 18.5 °C 17.5 °C 1010.8 hPa Calm     94% 0.0 mm 0 W/m2
23:02 18.4 °C 17.4 °C 1010.8 hPa Calm     94% 0.0 mm 0 W/m2
23:07 18.4 °C 17.4 °C 1010.8 hPa Calm     94% 0.0 mm 0 W/m2
23:12 18.4 °C 17.4 °C 1010.8 hPa Calm     94% 0.0 mm 0 W/m2
23:17 18.4 °C 17.4 °C 1010.5 hPa Calm     94% 0.0 mm 0 W/m2
23:22 18.3 °C 17.3 °C 1010.5 hPa Calm     94% 0.0 mm 0 W/m2
23:27 18.3 °C 17.3 °C 1010.5 hPa Calm     94% 0.0 mm 0 W/m2
23:32 18.2 °C 17.2 °C 1010.5 hPa Calm     94% 0.0 mm 0 W/m2
23:37 18.1 °C 17.1 °C 1010.5 hPa Calm     94% 0.0 mm 0 W/m2
23:42 18.1 °C 17.1 °C 1010.5 hPa Calm     94% 0.0 mm 0 W/m2
23:47 18.1 °C 17.3 °C 1010.5 hPa Calm     95% 0.0 mm 0 W/m2
23:52 18.1 °C 17.3 °C 1010.5 hPa Calm     95% 0.0 mm 0 W/m2
23:57 18 °C 17.2 °C 1010.5 hPa Calm     95% 0.0 mm 0 W/m2
Juneau County Weather
Compliments of Weather Underground - 4 mb